Terminal Aerodrome Forecast
Issued by NWS Charleston, WV

Current Version | Previous Version | Graphics & Text | Print | Product List | Glossary On
Versions: 1 2 3 4 5 6 7 8 9 10 11 12 13 14 15 16 17 18 19 20 21 22 23 24
000
FTUS41 KRLX 301100
TAFEKN
TAF
KEKN 301138Z 3012/3112 26010G16KT P6SM OVC021
     FM301700 28013G20KT P6SM SCT020
     FM310200 28010G15KT P6SM BKN200
     FM310900 26009KT P6SM BKN045=

USA.gov is the U.S. government's official web portal to all federal, state and local government web resources and services.